Time;durP1;ratioP1;P1;durP2;ratioP2;P2;SDS_P1;SDS_P2;PMS_P1;PMS_P2;Temp;Humidity;BMP_temperature;BMP_pressure;BME280_temperature;BME280_humidity;BME280_pressure;Samples;Min_cycle;Max_cycle;Signal;HPM_P1;HPM_P2
2022/09/30 00:01:13;;;;;;;;;;;;;;;7.65;83.13;97149.59;5032877;28;19932;-84
2022/09/30 00:03:42;;;;;;;;;;;;;;;7.68;82.88;97146.28;5029402;28;19931;-85
2022/09/30 00:06:10;;;;;;;;;;;;;;;7.59;83.63;97153.56;5009183;28;20359;-84
2022/09/30 00:08:39;;;;;;;;;;;;;;;7.51;84.17;97154.28;5031981;28;20032;-85
2022/09/30 00:11:08;;;;;;;;;;;;;;;7.56;83.69;97151.47;5012651;28;20032;-85
2022/09/30 00:13:39;;;;;;;;;;;;;;;7.57;83.59;97147.66;5016593;28;19929;-85
2022/09/30 00:16:07;;;;;;;;;;;;;;;7.59;83.44;97145.44;5016749;28;19926;-85
2022/09/30 00:18:37;;;;;;;;;;;;;;;7.62;83.50;97147.53;5018462;28;19948;-85
2022/09/30 00:21:05;;;;;;;;;;;;;;;7.62;83.58;97147.53;5026974;28;19932;-85
2022/09/30 00:23:33;;;;;;;;;;;;;;;7.60;83.88;97130.81;5008405;28;19925;-84
2022/09/30 00:26:02;;;;;;;;;;;;;;;7.65;83.72;97138.00;5013131;28;20028;-85
2022/09/30 00:28:32;;;;;;;;;;;;;;;7.61;83.96;97135.91;5011675;28;19925;-84
2022/09/30 00:31:01;;;;;;;;;;;;;;;7.59;83.89;97140.03;5005914;28;20265;-85
2022/09/30 00:33:29;;;;;;;;;;;;;;;7.59;83.72;97153.56;5005530;28;19925;-84
2022/09/30 00:35:58;;;;;;;;;;;;;;;7.58;83.67;97150.06;5011304;28;19925;-85
2022/09/30 00:38:26;;;;;;;;;;;;;;;7.57;83.84;97143.06;5009373;28;19940;-84
2022/09/30 00:40:55;;;;;;;;;;;;;;;7.55;83.46;97149.88;5006371;28;19965;-84
2022/09/30 00:43:52;;;;;;;;;;;;;;;7.54;83.79;97148.28;5009723;28;19932;-84
2022/09/30 00:46:21;;;;;;;;;;;;;;;7.53;83.58;97154.78;5011931;28;20318;-85
2022/09/30 00:48:52;;;;;;;;;;;;;;;7.49;83.40;97151.09;4996236;28;20375;-84
2022/09/30 00:51:25;;;;;;;;;;;;;;;7.46;83.47;97157.16;4994483;28;19933;-84
2022/09/30 00:53:55;;;;;;;;;;;;;;;7.33;83.56;97162.31;4996090;28;19932;-85
2022/09/30 00:56:23;;;;;;;;;;;;;;;7.17;83.72;97155.69;4995646;28;19988;-86
2022/09/30 00:58:52;;;;;;;;;;;;;;;7.09;84.16;97154.53;4996609;28;19934;-85
2022/09/30 01:01:20;;;;;;;;;;;;;;;7.14;84.25;97167.13;4994169;28;19937;-85
2022/09/30 01:03:50;;;;;;;;;;;;;;;7.14;84.19;97171.69;5016362;28;19930;-85
2022/09/30 01:06:18;;;;;;;;;;;;;;;7.10;84.25;97166.13;5013974;28;19929;-85
2022/09/30 01:08:47;;;;;;;;;;;;;;;7.15;84.08;97166.00;4987835;28;20455;-85
2022/09/30 01:11:15;;;;;;;;;;;;;;;7.19;83.55;97172.41;5014862;28;19930;-84
2022/09/30 01:13:43;;;;;;;;;;;;;;;7.22;83.79;97176.38;4992794;28;19926;-85
2022/09/30 01:16:21;;;;;;;;;;;;;;;7.24;83.79;97179.56;5002672;28;19940;-85
2022/09/30 01:18:53;;;;;;;;;;;;;;;7.28;83.63;97188.66;4998615;28;20331;-85
2022/09/30 01:21:41;;;;;;;;;;;;;;;7.29;83.42;97185.63;4987705;28;19932;-85
2022/09/30 01:24:33;;;;;;;;;;;;;;;7.21;83.50;97188.28;4992628;28;19932;-85
2022/09/30 01:27:07;;;;;;;;;;;;;;;7.13;83.35;97184.41;4979245;28;20308;-85
2022/09/30 01:29:56;;;;;;;;;;;;;;;7.10;83.45;97187.72;4992205;28;19925;-85
2022/09/30 01:32:28;;;;;;;;;;;;;;;6.97;83.46;97183.16;5014357;28;20024;-85
2022/09/30 01:35:03;;;;;;;;;;;;;;;7.01;83.58;97184.94;5022861;28;20363;-85
2022/09/30 01:37:34;;;;;;;;;;;;;;;7.01;83.51;97184.16;4994998;28;20300;-85
2022/09/30 01:40:04;;;;;;;;;;;;;;;6.93;83.62;97193.00;5011345;28;19960;-85
2022/09/30 01:42:34;;;;;;;;;;;;;;;6.94;83.55;97206.19;4994017;28;20238;-85
2022/09/30 01:45:04;;;;;;;;;;;;;;;6.93;83.63;97193.78;4989124;28;19925;-85
2022/09/30 01:47:37;;;;;;;;;;;;;;;6.82;83.64;97195.94;4995893;28;19994;-85
2022/09/30 01:50:06;;;;;;;;;;;;;;;6.85;83.44;97186.41;5002667;28;19974;-86
2022/09/30 01:52:35;;;;;;;;;;;;;;;6.87;83.25;97191.50;5024413;28;20241;-86
2022/09/30 01:55:07;;;;;;;;;;;;;;;6.76;83.38;97204.41;4999597;28;20315;-86
2022/09/30 01:57:36;;;;;;;;;;;;;;;6.69;83.95;97210.25;4994319;28;19925;-86
2022/09/30 02:00:06;;;;;;;;;;;;;;;6.73;83.76;97200.44;4998013;28;19925;-84
2022/09/30 02:02:41;;;;;;;;;;;;;;;6.77;83.82;97201.44;4999018;28;19933;-85
2022/09/30 02:05:10;;;;;;;;;;;;;;;6.76;84.14;97204.41;5014410;28;19933;-85
2022/09/30 02:07:39;;;;;;;;;;;;;;;6.70;84.46;97198.34;5013951;28;19936;-84
2022/09/30 02:10:08;;;;;;;;;;;;;;;6.69;84.51;97193.25;5014331;28;19996;-84
2022/09/30 02:12:37;;;;;;;;;;;;;;;6.76;83.93;97199.81;5029298;28;19989;-85
2022/09/30 02:15:06;;;;;;;;;;;;;;;6.81;83.53;97197.00;5025054;28;19925;-85
2022/09/30 02:17:39;;;;;;;;;;;;;;;6.70;83.54;97195.63;4995517;28;19948;-85
2022/09/30 02:20:09;;;;;;;;;;;;;;;6.70;83.61;97198.34;5005412;28;20375;-84
2022/09/30 02:22:41;;;;;;;;;;;;;;;6.70;83.26;97194.84;4991980;28;19969;-85
2022/09/30 02:25:10;;;;;;;;;;;;;;;6.53;83.32;97204.38;4998255;28;19925;-85
2022/09/30 02:28:06;;;;;;;;;;;;;;;6.63;83.30;97200.66;5006266;28;19977;-86
2022/09/30 02:30:35;;;;;;;;;;;;;;;6.17;83.92;97206.19;5003930;28;19989;-85
2022/09/30 02:33:03;;;;;;;;;;;;;;;6.34;83.65;97206.41;4992769;28;19929;-86
2022/09/30 02:35:35;;;;;;;;;;;;;;;6.19;83.51;97210.19;5013709;28;19925;-85
2022/09/30 02:38:05;;;;;;;;;;;;;;;6.33;83.32;97217.47;4999587;28;19977;-85
2022/09/30 02:40:35;;;;;;;;;;;;;;;6.42;83.04;97218.38;4998562;28;20410;-86
2022/09/30 02:43:03;;;;;;;;;;;;;;;6.46;83.00;97224.78;4993073;28;19980;-87
2022/09/30 02:45:32;;;;;;;;;;;;;;;6.44;82.84;97225.06;4990081;28;19926;-86
2022/09/30 02:48:05;;;;;;;;;;;;;;;6.48;82.87;97219.88;5000508;28;19926;-86
2022/09/30 02:50:36;;;;;;;;;;;;;;;6.44;82.62;97224.25;4993181;28;19985;-87
2022/09/30 02:53:13;;;;;;;;;;;;;;;6.36;82.65;97217.69;5012712;28;20031;-86
2022/09/30 02:55:44;;;;;;;;;;;;;;;6.41;82.83;97224.88;4988581;28;19937;-89
2022/09/30 02:58:12;;;;;;;;;;;;;;;6.39;82.90;97230.59;4998619;28;19925;-86
2022/09/30 03:01:05;;;;;;;;;;;;;;;6.41;82.75;97235.66;4994306;28;19976;-86
2022/09/30 03:03:38;;;;;;;;;;;;;;;6.36;82.77;97236.56;5015465;28;19964;-84
2022/09/30 03:06:10;;;;;;;;;;;;;;;6.33;82.92;97234.47;4993220;28;19925;-86
2022/09/30 03:08:38;;;;;;;;;;;;;;;6.34;82.86;97236.06;5016834;28;19926;-86
2022/09/30 03:11:06;;;;;;;;;;;;;;;6.22;83.17;97233.84;5012997;28;19936;-85
2022/09/30 03:13:49;;;;;;;;;;;;;;;6.30;83.56;97240.47;4998112;28;20272;-86
2022/09/30 03:16:19;;;;;;;;;;;;;;;6.32;83.27;97245.56;4987551;28;19925;-86
2022/09/30 03:18:51;;;;;;;;;;;;;;;6.25;83.82;97248.66;5016158;28;19988;-86
2022/09/30 03:21:25;;;;;;;;;;;;;;;6.18;83.82;97249.06;4995771;28;20056;-86
2022/09/30 03:24:03;;;;;;;;;;;;;;;6.17;84.24;97258.22;4990332;28;19932;-86
2022/09/30 03:26:35;;;;;;;;;;;;;;;6.12;85.24;97255.63;4997035;28;19929;-87
2022/09/30 03:29:06;;;;;;;;;;;;;;;6.14;85.58;97258.84;4991664;28;19932;-86
2022/09/30 03:31:37;;;;;;;;;;;;;;;6.07;86.08;97258.41;4998311;28;19932;-86
2022/09/30 03:34:09;;;;;;;;;;;;;;;6.10;86.10;97252.44;5016238;28;19988;-86
2022/09/30 03:36:40;;;;;;;;;;;;;;;6.14;86.31;97258.03;5010251;28;19957;-86
2022/09/30 03:39:10;;;;;;;;;;;;;;;6.14;86.39;97269.63;4990443;28;20451;-86
2022/09/30 03:41:39;;;;;;;;;;;;;;;6.10;87.39;97278.59;4987729;28;19926;-86
2022/09/30 03:44:09;;;;;;;;;;;;;;;6.04;87.73;97270.59;4994166;28;20304;-85
2022/09/30 03:46:40;;;;;;;;;;;;;;;6.04;87.58;97264.41;4996833;28;19948;-85
2022/09/30 03:49:10;;;;;;;;;;;;;;;6.16;87.80;97272.81;5002995;28;19925;-86
2022/09/30 03:51:39;;;;;;;;;;;;;;;6.23;87.72;97272.41;5015329;28;19925;-87
2022/09/30 03:54:10;;;;;;;;;;;;;;;6.08;87.85;97275.41;4997550;28;19930;-86
2022/09/30 03:56:42;;;;;;;;;;;;;;;5.95;88.41;97279.66;4995588;28;19953;-86
2022/09/30 04:02:27;;;;;;;;;;;;;;;5.79;89.32;97293.38;4996918;28;19925;-85
2022/09/30 04:04:55;;;;;;;;;;;;;;;5.93;89.57;97287.25;4995118;28;19960;-86
2022/09/30 04:07:25;;;;;;;;;;;;;;;6.03;89.47;97285.19;5000149;28;19955;-85
2022/09/30 04:09:53;;;;;;;;;;;;;;;5.90;89.49;97295.91;4998497;28;19925;-85
2022/09/30 04:12:22;;;;;;;;;;;;;;;6.00;89.49;97298.47;4996621;28;19926;-86
2022/09/30 04:14:52;;;;;;;;;;;;;;;5.99;89.82;97294.97;4993464;28;20339;-85
2022/09/30 04:17:20;;;;;;;;;;;;;;;6.00;90.03;97299.25;5010096;28;19961;-86
2022/09/30 04:19:49;;;;;;;;;;;;;;;6.03;89.85;97303.28;5005090;28;19932;-86
2022/09/30 04:22:17;;;;;;;;;;;;;;;5.95;89.66;97303.94;5003010;28;20020;-86
2022/09/30 04:24:50;;;;;;;;;;;;;;;5.90;89.43;97302.09;5007657;28;19980;-85
2022/09/30 04:27:19;;;;;;;;;;;;;;;5.76;89.50;97304.75;4997286;28;19929;-86
2022/09/30 04:29:50;;;;;;;;;;;;;;;5.97;89.52;97309.84;5008912;28;19925;-86
2022/09/30 04:32:21;;;;;;;;;;;;;;;5.97;89.67;97312.53;5023139;28;19972;-90
2022/09/30 04:34:50;;;;;;;;;;;;;;;5.93;89.91;97306.94;5011904;28;19925;-86
2022/09/30 04:37:18;;;;;;;;;;;;;;;5.91;90.33;97302.88;5013452;28;19925;-86
2022/09/30 04:39:46;;;;;;;;;;;;;;;5.85;90.58;97310.25;4993106;28;19933;-86
2022/09/30 04:42:18;;;;;;;;;;;;;;;5.94;90.31;97311.22;4988840;28;19988;-84
2022/09/30 04:44:48;;;;;;;;;;;;;;;6.06;90.43;97310.75;4985388;28;20041;-82
2022/09/30 04:47:16;;;;;;;;;;;;;;;6.11;90.46;97318.75;5020358;28;20391;-83
2022/09/30 04:49:45;;;;;;;;;;;;;;;6.16;89.93;97321.34;4996711;28;20269;-82
2022/09/30 04:52:14;;;;;;;;;;;;;;;6.08;89.51;97332.84;5009433;28;20024;-82
2022/09/30 04:54:48;;;;;;;;;;;;;;;6.17;89.39;97336.44;5012543;28;19937;-80
2022/09/30 04:57:16;;;;;;;;;;;;;;;6.18;89.01;97338.06;5007443;28;20375;-82
2022/09/30 04:59:50;;;;;;;;;;;;;;;6.08;88.73;97338.25;5009657;28;19936;-85
2022/09/30 05:02:19;;;;;;;;;;;;;;;6.12;88.49;97336.53;5005164;28;20020;-83
2022/09/30 05:04:47;;;;;;;;;;;;;;;6.17;88.50;97338.34;4995508;28;19925;-82
2022/09/30 05:07:15;;;;;;;;;;;;;;;6.21;88.40;97334.75;4996707;28;19932;-80
2022/09/30 05:09:43;;;;;;;;;;;;;;;6.23;88.06;97348.75;4996598;28;19926;-81
2022/09/30 05:12:11;;;;;;;;;;;;;;;6.28;87.96;97348.69;5001118;28;19925;-86
2022/09/30 05:14:39;;;;;;;;;;;;;;;6.29;88.12;97347.56;4998979;28;19932;-86
2022/09/30 05:17:09;;;;;;;;;;;;;;;6.30;87.76;97343.78;4993557;28;19925;-85
2022/09/30 05:19:36;;;;;;;;;;;;;;;6.14;87.92;97334.34;4985065;28;19961;-76
2022/09/30 05:22:04;;;;;;;;;;;;;;;6.14;87.78;97334.34;4982487;28;19988;-89
2022/09/30 05:24:34;;;;;;;;;;;;;;;6.18;87.92;97339.94;5005598;28;20051;-86
2022/09/30 05:27:03;;;;;;;;;;;;;;;6.12;87.67;97341.91;4991087;28;20343;-79
2022/09/30 05:29:56;;;;;;;;;;;;;;;5.99;88.21;97348.09;5011183;28;20394;-78
2022/09/30 05:32:25;;;;;;;;;;;;;;;6.00;87.95;97344.28;5011146;28;19980;-80
2022/09/30 05:34:54;;;;;;;;;;;;;;;5.93;88.31;97349.28;4988174;28;19956;-80
2022/09/30 05:37:23;;;;;;;;;;;;;;;6.08;88.42;97350.94;5009248;28;19937;-86
2022/09/30 05:39:51;;;;;;;;;;;;;;;6.16;88.26;97359.13;5008127;28;20019;-82
2022/09/30 05:42:45;;;;;;;;;;;;;;;6.25;88.02;97359.25;4999378;28;20011;-86
2022/09/30 05:45:13;;;;;;;;;;;;;;;6.22;88.53;97366.03;5017641;28;19937;-87
2022/09/30 05:47:43;;;;;;;;;;;;;;;6.31;88.06;97371.53;5003893;28;19934;-84
2022/09/30 05:50:11;;;;;;;;;;;;;;;6.32;88.17;97383.94;5024791;28;19929;-83
2022/09/30 05:52:39;;;;;;;;;;;;;;;6.39;88.27;97387.06;5000921;28;19933;-83
2022/09/30 05:55:09;;;;;;;;;;;;;;;6.45;88.18;97393.19;5022353;28;19924;-83
2022/09/30 05:57:37;;;;;;;;;;;;;;;6.25;87.65;97397.81;5025577;28;19929;-82
2022/09/30 06:00:06;;;;;;;;;;;;;;;6.40;88.03;97401.34;5005305;28;19925;-81
2022/09/30 06:02:38;;;;;;;;;;;;;;;6.47;87.92;97401.75;5020950;28;19925;-84
2022/09/30 06:05:08;;;;;;;;;;;;;;;6.52;87.87;97398.97;5004137;28;19926;-82
2022/09/30 06:07:37;;;;;;;;;;;;;;;6.53;87.34;97400.56;5008936;28;20372;-83
2022/09/30 06:10:06;;;;;;;;;;;;;;;6.56;87.28;97403.50;5013482;28;20009;-82
2022/09/30 06:12:37;;;;;;;;;;;;;;;6.60;87.60;97409.06;5008187;28;19932;-82
2022/09/30 06:15:05;;;;;;;;;;;;;;;6.61;87.78;97408.00;5000878;28;20024;-83
2022/09/30 06:17:33;;;;;;;;;;;;;;;6.67;87.19;97417.59;4998941;28;19969;-84
2022/09/30 06:20:03;;;;;;;;;;;;;;;6.71;86.93;97420.47;5005343;28;20349;-83
2022/09/30 06:22:34;;;;;;;;;;;;;;;6.74;86.96;97420.69;4999324;28;19940;-83
2022/09/30 06:25:03;;;;;;;;;;;;;;;6.46;87.10;97424.44;5001626;28;19932;-84
2022/09/30 06:27:33;;;;;;;;;;;;;;;6.33;87.48;97426.00;5013094;28;20342;-86
2022/09/30 06:30:02;;;;;;;;;;;;;;;6.38;87.47;97430.50;4994224;28;19926;-86
2022/09/30 06:32:30;;;;;;;;;;;;;;;6.46;88.06;97424.44;4991055;28;19932;-87
2022/09/30 06:34:58;;;;;;;;;;;;;;;6.43;87.84;97422.34;4997368;28;19972;-87
2022/09/30 06:37:27;;;;;;;;;;;;;;;6.54;87.83;97426.47;5013649;28;19925;-86
2022/09/30 06:39:56;;;;;;;;;;;;;;;6.63;87.77;97423.88;4992905;28;19926;-87
2022/09/30 06:42:24;;;;;;;;;;;;;;;6.57;87.75;97425.88;4994954;28;19929;-88
2022/09/30 06:44:53;;;;;;;;;;;;;;;6.69;87.67;97430.78;4988640;28;20375;-86
2022/09/30 06:47:21;;;;;;;;;;;;;;;6.47;87.93;97431.44;5000053;28;19926;-86
2022/09/30 06:50:18;;;;;;;;;;;;;;;6.52;88.29;97426.75;5024070;28;20005;-85
2022/09/30 06:52:52;;;;;;;;;;;;;;;6.59;88.08;97422.88;5037966;28;19964;-86
2022/09/30 06:55:23;;;;;;;;;;;;;;;6.68;87.81;97427.28;5018580;28;19926;-86
2022/09/30 06:57:51;;;;;;;;;;;;;;;6.81;87.42;97440.00;5008991;28;19933;-85
2022/09/30 07:00:19;;;;;;;;;;;;;;;6.80;87.14;97440.31;5022148;28;20409;-86
2022/09/30 07:02:47;;;;;;;;;;;;;;;6.81;87.11;97448.09;5004476;28;19930;-86
2022/09/30 07:05:16;;;;;;;;;;;;;;;6.86;87.06;97441.00;5009569;28;19926;-86
2022/09/30 07:07:44;;;;;;;;;;;;;;;6.87;86.75;97458.81;5018888;28;19972;-85
2022/09/30 07:10:13;;;;;;;;;;;;;;;6.62;87.02;97462.78;5008548;28;19925;-86
2022/09/30 07:12:42;;;;;;;;;;;;;;;6.69;87.05;97465.88;5006576;28;19932;-86
2022/09/30 07:15:10;;;;;;;;;;;;;;;6.76;87.04;97468.97;5017079;28;19926;-87
2022/09/30 07:17:42;;;;;;;;;;;;;;;6.64;86.58;97474.88;5021668;28;19936;-86
2022/09/30 07:20:10;;;;;;;;;;;;;;;6.54;87.08;97477.72;5022506;28;19929;-86
2022/09/30 07:22:38;;;;;;;;;;;;;;;6.48;87.14;97482.41;5013115;28;19926;-86
2022/09/30 07:25:10;;;;;;;;;;;;;;;6.50;87.46;97477.53;5013460;28;20000;-87
2022/09/30 07:28:04;;;;;;;;;;;;;;;6.55;87.17;97485.56;5026116;28;20033;-88
2022/09/30 07:30:35;;;;;;;;;;;;;;;6.56;87.16;97480.97;5018918;28;19941;-89
2022/09/30 07:33:04;;;;;;;;;;;;;;;6.51;87.07;97479.13;5026037;28;19929;-87
2022/09/30 07:35:32;;;;;;;;;;;;;;;6.44;87.67;97480.59;5020386;28;19995;-87
2022/09/30 07:38:01;;;;;;;;;;;;;;;6.53;87.57;97487.72;5022902;28;19932;-85
2022/09/30 07:40:30;;;;;;;;;;;;;;;6.62;87.57;97495.97;5020475;28;20376;-85
2022/09/30 07:42:59;;;;;;;;;;;;;;;6.73;87.54;97502.78;5014164;28;19925;-85
2022/09/30 07:45:28;;;;;;;;;;;;;;;6.74;87.68;97499.00;5011772;28;20303;-87
2022/09/30 07:47:58;;;;;;;;;;;;;;;6.89;87.80;97502.53;5033087;28;20391;-86
2022/09/30 07:50:27;;;;;;;;;;;;;;;6.96;87.50;97502.94;5029289;28;19925;-88
2022/09/30 07:52:56;;;;;;;;;;;;;;;7.06;87.04;97516.25;5026659;28;19925;-89
2022/09/30 07:55:24;;;;;;;;;;;;;;;7.04;86.75;97518.47;5012029;28;20015;-87
2022/09/30 07:57:52;;;;;;;;;;;;;;;7.10;86.83;97519.97;5023810;28;20355;-87
2022/09/30 08:00:21;;;;;;;;;;;;;;;7.14;86.51;97534.50;5010532;28;20259;-90
2022/09/30 08:03:10;;;;;;;;;;;;;;;7.08;85.87;97530.25;5029678;28;19932;-88
2022/09/30 08:05:43;;;;;;;;;;;;;;;7.02;85.74;97521.44;5015406;28;19926;-88
2022/09/30 08:08:12;;;;;;;;;;;;;;;7.22;85.65;97533.00;5013500;28;20375;-88
2022/09/30 08:10:40;;;;;;;;;;;;;;;7.33;85.97;97527.09;5009315;28;19968;-88
2022/09/30 08:13:32;;;;;;;;;;;;;;;7.29;85.68;97530.69;5025252;28;19925;-86
2022/09/30 08:16:01;;;;;;;;;;;;;;;7.06;84.86;97527.06;5011064;28;19925;-88
2022/09/30 08:18:30;;;;;;;;;;;;;;;7.10;85.23;97533.47;5014537;28;19925;-87
2022/09/30 08:21:02;;;;;;;;;;;;;;;7.10;85.26;97528.06;5014154;28;19926;-88
2022/09/30 08:23:29;;;;;;;;;;;;;;;7.12;85.67;97525.88;5007034;28;19925;-89
2022/09/30 08:26:01;;;;;;;;;;;;;;;7.05;85.77;97523.56;5023776;28;19925;-88
2022/09/30 08:28:30;;;;;;;;;;;;;;;7.25;85.73;97527.00;5012046;28;19928;-88
2022/09/30 08:31:06;;;;;;;;;;;;;;;7.35;85.29;97534.91;5025223;28;19926;-88
2022/09/30 08:33:38;;;;;;;;;;;;;;;7.42;85.03;97535.31;5013489;28;20243;-89
2022/09/30 08:36:07;;;;;;;;;;;;;;;7.49;85.03;97541.13;5006632;28;19933;-89
2022/09/30 08:38:35;;;;;;;;;;;;;;;7.49;85.13;97548.44;5005956;28;19937;-88
2022/09/30 08:41:07;;;;;;;;;;;;;;;7.52;85.08;97551.34;5001397;28;19976;-89
2022/09/30 08:43:36;;;;;;;;;;;;;;;7.57;84.55;97550.44;5003740;28;19933;-89
2022/09/30 08:46:07;;;;;;;;;;;;;;;7.51;84.74;97557.03;5026970;28;19929;-89
2022/09/30 08:48:40;;;;;;;;;;;;;;;7.55;84.48;97556.13;5011645;28;19930;-92
2022/09/30 08:51:14;;;;;;;;;;;;;;;7.58;84.78;97554.75;5006762;28;20383;-85
2022/09/30 08:53:44;;;;;;;;;;;;;;;7.61;84.68;97552.22;5003293;28;19944;-85
2022/09/30 08:56:14;;;;;;;;;;;;;;;7.67;84.57;97561.06;5011225;28;19926;-85
2022/09/30 08:58:43;;;;;;;;;;;;;;;7.68;84.29;97557.25;5029489;28;19925;-85
2022/09/30 09:01:13;;;;;;;;;;;;;;;7.69;84.18;97569.66;4990701;28;19925;-85
2022/09/30 09:03:45;;;;;;;;;;;;;;;7.66;83.94;97570.25;5023330;28;19936;-85
2022/09/30 09:06:21;;;;;;;;;;;;;;;7.72;84.26;97579.84;5014096;28;19926;-85
2022/09/30 09:09:15;;;;;;;;;;;;;;;7.85;84.76;97568.25;5019549;28;19934;-80
2022/09/30 09:11:46;;;;;;;;;;;;;;;7.82;84.39;97581.56;5020671;28;19926;-89
2022/09/30 09:14:20;;;;;;;;;;;;;;;7.94;84.37;97575.66;5010710;28;20020;-90
2022/09/30 09:16:50;;;;;;;;;;;;;;;7.94;83.55;97567.56;5005781;28;19925;-89
2022/09/30 09:19:20;;;;;;;;;;;;;;;7.89;83.72;97573.88;5013404;28;19926;-90
2022/09/30 09:21:50;;;;;;;;;;;;;;;7.84;83.61;97580.19;5024635;28;19934;-89
2022/09/30 09:24:19;;;;;;;;;;;;;;;8.02;83.58;97573.03;5006897;28;20012;-90
2022/09/30 09:26:49;;;;;;;;;;;;;;;8.13;83.55;97579.03;5010349;28;19935;-89
2022/09/30 09:29:38;;;;;;;;;;;;;;;8.21;82.27;97578.34;5011206;28;19925;-90
2022/09/30 09:32:09;;;;;;;;;;;;;;;8.43;82.91;97585.72;4990539;28;19930;-90
2022/09/30 09:34:40;;;;;;;;;;;;;;;8.64;82.51;97575.22;5012061;28;19940;-87
2022/09/30 09:37:10;;;;;;;;;;;;;;;8.77;81.95;97579.78;4995508;28;19926;-89
2022/09/30 09:40:03;;;;;;;;;;;;;;;8.75;80.71;97573.88;5010523;28;19980;-89
2022/09/30 09:42:37;;;;;;;;;;;;;;;8.69;80.26;97577.81;4998524;28;19925;-89
2022/09/30 09:45:09;;;;;;;;;;;;;;;8.72;80.54;97574.47;5012418;28;19940;-89
2022/09/30 09:47:38;;;;;;;;;;;;;;;8.85;80.40;97576.34;5028817;28;20372;-87
2022/09/30 09:50:12;;;;;;;;;;;;;;;8.96;79.77;97573.41;5006136;28;20376;-86
2022/09/30 09:52:49;;;;;;;;;;;;;;;9.05;79.85;97571.53;5000642;28;20047;-87
2022/09/30 09:55:19;;;;;;;;;;;;;;;9.04;79.94;97583.47;5024057;28;20280;-87
2022/09/30 09:57:47;;;;;;;;;;;;;;;9.11;80.03;97573.03;5028704;28;19929;-84
2022/09/30 10:03:12;;;;;;;;;;;;;;;9.13;78.50;97568.88;5031747;28;19971;-76
2022/09/30 10:05:41;;;;;;;;;;;;;;;9.15;78.71;97580.19;5014592;28;20031;-81
2022/09/30 10:08:11;;;;;;;;;;;;;;;9.22;78.99;97578.97;5021168;28;19933;-82
2022/09/30 10:10:42;;;;;;;;;;;;;;;9.30;78.84;97578.22;5014036;28;20001;-84
2022/09/30 10:13:19;;;;;;;;;;;;;;;9.34;77.75;97579.19;5021606;28;20318;-84
2022/09/30 10:15:47;;;;;;;;;;;;;;;9.38;77.50;97580.97;5005868;28;19929;-82
2022/09/30 10:18:25;;;;;;;;;;;;;;;9.47;77.70;97574.78;5015563;28;19925;-86
2022/09/30 10:20:56;;;;;;;;;;;;;;;9.49;77.74;97578.00;5023183;28;20444;-86
2022/09/30 10:23:26;;;;;;;;;;;;;;;9.51;77.66;97576.56;5015019;28;20543;-77
2022/09/30 10:26:07;;;;;;;;;;;;;;;9.55;77.73;97572.13;5031278;28;19925;-84
2022/09/30 10:28:44;;;;;;;;;;;;;;;9.60;77.07;97563.84;5022437;28;20403;-80
2022/09/30 10:31:13;;;;;;;;;;;;;;;9.67;78.05;97569.59;5021805;28;19933;-83
2022/09/30 10:33:43;;;;;;;;;;;;;;;9.69;77.18;97572.00;5026426;28;19925;-83
2022/09/30 10:36:18;;;;;;;;;;;;;;;9.72;76.67;97565.97;5017682;28;19973;-83
2022/09/30 10:38:55;;;;;;;;;;;;;;;9.68;77.11;97565.78;5020433;28;19929;-86
2022/09/30 10:41:26;;;;;;;;;;;;;;;9.87;76.77;97568.25;5021098;28;19993;-82
2022/09/30 10:43:55;;;;;;;;;;;;;;;9.93;76.54;97571.63;5002955;28;19933;-84
2022/09/30 10:46:24;;;;;;;;;;;;;;;10.06;76.41;97564.44;5014057;28;19929;-81
2022/09/30 10:48:55;;;;;;;;;;;;;;;10.16;75.71;97575.00;5007675;28;19929;-80
2022/09/30 10:51:26;;;;;;;;;;;;;;;10.21;74.88;97569.44;5010794;28;19932;-81
2022/09/30 10:53:55;;;;;;;;;;;;;;;10.26;74.71;97563.88;5012354;28;19926;-82
2022/09/30 10:56:50;;;;;;;;;;;;;;;10.31;74.77;97562.94;5020221;28;20380;-81
2022/09/30 10:59:33;;;;;;;;;;;;;;;10.42;72.26;97570.44;4980189;28;19937;-81
2022/09/30 11:02:26;;;;;;;;;;;;;;;10.63;71.33;97564.41;5002606;28;19934;-80
2022/09/30 11:04:57;;;;;;;;;;;;;;;10.72;69.84;97568.72;5014788;28;19925;-80
2022/09/30 11:07:29;;;;;;;;;;;;;;;10.80;69.80;97561.66;5008822;28;19932;-80
2022/09/30 11:09:58;;;;;;;;;;;;;;;10.83;69.72;97571.91;5013538;28;19925;-81
2022/09/30 11:12:28;;;;;;;;;;;;;;;10.88;69.58;97571.75;5013815;28;19925;-80
2022/09/30 11:14:58;;;;;;;;;;;;;;;11.00;71.13;97577.31;5008128;28;19929;-80
2022/09/30 11:17:30;;;;;;;;;;;;;;;11.12;70.89;97578.56;5023876;28;20009;-81
2022/09/30 11:20:03;;;;;;;;;;;;;;;11.12;70.30;97584.81;5012269;28;19936;-80
2022/09/30 11:22:35;;;;;;;;;;;;;;;11.18;69.46;97577.28;5012070;28;19929;-81
2022/09/30 11:25:13;;;;;;;;;;;;;;;11.20;68.88;97575.06;5023502;28;19925;-80
2022/09/30 11:28:26;;;;;;;;;;;;;;;11.41;68.37;97581.41;5022428;28;19926;-82
2022/09/30 11:30:56;;;;;;;;;;;;;;;11.52;68.66;97574.47;5016865;28;19984;-83
2022/09/30 11:33:49;;;;;;;;;;;;;;;11.61;66.33;97576.34;5003830;28;20509;-82
2022/09/30 11:36:21;;;;;;;;;;;;;;;11.63;64.28;97574.13;4993259;28;19929;-82
2022/09/30 11:39:02;;;;;;;;;;;;;;;11.69;65.21;97573.63;4992672;28;20036;-83
2022/09/30 11:44:48;;;;;;;;;;;;;;;11.85;64.71;97568.44;5009778;28;20348;-81
2022/09/30 11:47:23;;;;;;;;;;;;;;;11.97;63.44;97570.47;5003126;28;19925;-80
2022/09/30 11:50:23;;;;;;;;;;;;;;;12.05;65.59;97572.34;5007608;28;20360;-84
2022/09/30 11:52:55;;;;;;;;;;;;;;;12.14;64.25;97564.13;4986886;28;19945;-84
2022/09/30 11:55:35;;;;;;;;;;;;;;;12.20;62.32;97560.09;4999417;28;20012;-82
2022/09/30 11:58:04;;;;;;;;;;;;;;;12.09;61.63;97562.41;4984893;28;20016;-80
2022/09/30 12:00:55;;;;;;;;;;;;;;;12.16;62.75;97556.44;5024638;28;20036;-81
2022/09/30 12:03:25;;;;;;;;;;;;;;;12.09;62.98;97556.97;4993367;28;19932;-81
2022/09/30 12:05:54;;;;;;;;;;;;;;;12.04;62.48;97549.00;4983378;28;20045;-81
2022/09/30 12:08:25;;;;;;;;;;;;;;;12.10;60.70;97555.03;4992484;28;20021;-80
2022/09/30 12:10:55;;;;;;;;;;;;;;;12.08;60.89;97555.34;4994269;28;20039;-83
2022/09/30 12:13:25;;;;;;;;;;;;;;;12.11;62.04;97548.47;4990893;28;19925;-83
2022/09/30 12:15:54;;;;;;;;;;;;;;;12.14;63.58;97542.34;4993052;28;19932;-83
2022/09/30 12:18:23;;;;;;;;;;;;;;;12.22;63.71;97545.03;5007012;28;19933;-83
2022/09/30 12:21:13;;;;;;;;;;;;;;;12.28;63.16;97554.59;4993494;28;19945;-84
2022/09/30 12:24:03;;;;;;;;;;;;;;;12.36;61.94;97561.13;4995981;28;19937;-83
2022/09/30 12:26:39;;;;;;;;;;;;;;;12.41;60.29;97552.75;5025904;28;19926;-83
2022/09/30 12:32:18;;;;;;;;;;;;;;;12.53;60.95;97566.44;4998603;28;19944;-83
2022/09/30 12:34:54;;;;;;;;;;;;;;;12.51;60.75;97563.22;5019936;28;19936;-83
2022/09/30 12:37:26;;;;;;;;;;;;;;;12.45;60.43;97564.56;5002711;28;19925;-82
2022/09/30 12:40:04;;;;;;;;;;;;;;;12.44;61.08;97556.72;5007096;28;19925;-83
2022/09/30 12:42:39;;;;;;;;;;;;;;;12.44;61.69;97560.25;5031563;28;20426;-83
2022/09/30 12:45:33;;;;;;;;;;;;;;;12.43;59.54;97552.41;5023706;28;19939;-82
2022/09/30 12:48:05;;;;;;;;;;;;;;;12.49;58.97;97551.06;5019862;28;19972;-83
2022/09/30 12:50:35;;;;;;;;;;;;;;;12.56;60.95;97556.78;5009909;28;19933;-83
2022/09/30 12:53:09;;;;;;;;;;;;;;;12.58;60.97;97558.06;5005685;28;19926;-82
2022/09/30 12:55:38;;;;;;;;;;;;;;;12.64;61.52;97557.88;5009210;28;20399;-83
2022/09/30 12:58:42;;;;;;;;;;;;;;;12.66;60.49;97550.94;5020034;28;19933;-83
2022/09/30 13:01:14;;;;;;;;;;;;;;;12.72;60.63;97556.97;4997412;28;20021;-82
2022/09/30 13:03:47;;;;;;;;;;;;;;;12.72;60.45;97562.44;5006198;28;20399;-82
2022/09/30 13:06:16;;;;;;;;;;;;;;;12.73;59.60;97561.28;5004719;28;19925;-83
2022/09/30 13:08:48;;;;;;;;;;;;;;;12.74;60.36;97554.72;5008769;28;19929;-79
2022/09/30 13:11:33;;;;;;;;;;;;;;;12.76;59.89;97563.38;5022073;28;19925;-79
2022/09/30 13:14:27;;;;;;;;;;;;;;;12.85;59.16;97564.88;5011170;28;19925;-79
2022/09/30 13:17:14;;;;;;;;;;;;;;;12.94;59.35;97567.53;5011889;28;20379;-80
2022/09/30 13:19:44;;;;;;;;;;;;;;;13.00;56.86;97565.41;5022881;28;19954;-79
2022/09/30 13:22:38;;;;;;;;;;;;;;;13.00;57.93;97568.94;5024199;28;19930;-80
2022/09/30 13:25:11;;;;;;;;;;;;;;;12.95;59.05;97571.88;5006768;28;19983;-79
2022/09/30 13:27:41;;;;;;;;;;;;;;;12.89;58.77;97562.31;5025916;28;19980;-79
2022/09/30 13:30:25;;;;;;;;;;;;;;;12.83;59.22;97561.69;5001782;28;19937;-79
2022/09/30 13:33:26;;;;;;;;;;;;;;;12.88;59.88;97554.44;5005944;28;19936;-79
2022/09/30 13:36:09;;;;;;;;;;;;;;;12.78;60.08;97564.63;5025815;28;19929;-80